Time;durP1;ratioP1;P1;durP2;ratioP2;P2;SDS_P1;SDS_P2;PMS_P1;PMS_P2;Temp;Humidity;BMP_temperature;BMP_pressure;BME280_temperature;BME280_humidity;BME280_pressure;Samples;Min_cycle;Max_cycle;Signal;HPM_P1;HPM_P2
2021/04/04 00:00:54;;;;;;;;;;;6.30;99.90;;;;;;5135447;27;20068;-66
2021/04/04 00:03:26;;;;;;;;;;;6.30;99.90;;;;;;5109464;27;19919;-66
2021/04/04 00:05:53;;;;;;;;;;;6.20;99.90;;;;;;5129966;27;20067;-66
2021/04/04 00:08:23;;;;;;;;;;;6.20;99.90;;;;;;5119635;27;19962;-66
2021/04/04 00:10:55;;;;;;;;;;;6.20;99.90;;;;;;5113746;28;19931;-66
2021/04/04 00:20:52;;;;;;;;;;;6.30;99.90;;;;;;5124901;27;20061;-66
2021/04/04 00:23:22;;;;;;;;;;;6.30;99.90;;;;;;5115548;27;19949;-66
2021/04/04 00:25:59;;;;;;;;;;;6.30;99.90;;;;;;5126152;27;20348;-66
2021/04/04 00:28:42;;;;;;;;;;;6.20;99.90;;;;;;5100942;27;19919;-66
2021/04/04 00:31:12;;;;;;;;;;;6.20;99.90;;;;;;5133776;27;19923;-65
2021/04/04 00:33:44;;;;;;;;;;;6.30;99.90;;;;;;5130962;27;19919;-66
2021/04/04 00:43:27;;;;;;;;;;;6.30;99.90;;;;;;5122392;27;19959;-68
2021/04/04 00:46:04;;;;;;;;;;;6.30;99.90;;;;;;5078428;28;20358;-68
2021/04/04 00:48:36;;;;;;;;;;;6.30;99.90;;;;;;5081325;28;19919;-67
2021/04/04 00:51:09;;;;;;;;;;;6.30;99.90;;;;;;5097532;27;19919;-66
2021/04/04 00:53:36;;;;;;;;;;;6.40;99.90;;;;;;5108586;27;20363;-67
2021/04/04 00:56:39;;;;;;;;;;;6.30;99.90;;;;;;5110075;27;19958;-67
2021/04/04 00:59:07;;;;;;;;;;;6.40;99.90;;;;;;5099903;28;19992;-66
2021/04/04 01:01:41;;;;;;;;;;;6.30;99.90;;;;;;5115162;27;20381;-66
2021/04/04 01:04:17;;;;;;;;;;;6.30;99.90;;;;;;5115263;28;19920;-67
2021/04/04 01:13:29;;;;;;;;;;;6.20;99.90;;;;;;5128294;27;19959;-66
2021/04/04 01:16:02;;;;;;;;;;;6.20;99.90;;;;;;5135328;27;19919;-66
2021/04/04 01:18:32;;;;;;;;;;;6.20;99.90;;;;;;5115001;27;19938;-66
2021/04/04 01:21:19;;;;;;;;;;;6.30;99.90;;;;;;5094299;28;19927;-66
2021/04/04 01:24:09;;;;;;;;;;;6.20;99.90;;;;;;5097344;27;20416;-67
2021/04/04 01:26:46;;;;;;;;;;;6.20;99.90;;;;;;5131872;27;19920;-67
2021/04/04 01:36:18;;;;;;;;;;;6.30;99.90;;;;;;5097392;28;19918;-67
2021/04/04 01:38:57;;;;;;;;;;;6.30;99.90;;;;;;5102204;27;19959;-67
2021/04/04 01:41:26;;;;;;;;;;;6.30;99.90;;;;;;5120935;27;19979;-67
2021/04/04 01:44:12;;;;;;;;;;;6.30;99.90;;;;;;5081921;28;20014;-67
2021/04/04 01:46:45;;;;;;;;;;;6.30;99.90;;;;;;5122782;27;20409;-67
2021/04/04 01:49:11;;;;;;;;;;;6.30;99.90;;;;;;5114158;28;19973;-67
2021/04/04 01:58:28;;;;;;;;;;;6.30;99.90;;;;;;5134579;28;20446;-67
2021/04/04 02:00:59;;;;;;;;;;;6.30;99.90;;;;;;5087037;28;20390;-67
2021/04/04 02:03:28;;;;;;;;;;;6.30;99.90;;;;;;5096361;28;20377;-67
2021/04/04 02:05:59;;;;;;;;;;;6.40;99.90;;;;;;5093887;28;20328;-68
2021/04/04 02:08:31;;;;;;;;;;;6.20;99.90;;;;;;5129847;28;19926;-67
2021/04/04 02:10:58;;;;;;;;;;;6.20;99.90;;;;;;5134693;28;20013;-67
2021/04/04 02:13:30;;;;;;;;;;;6.30;99.90;;;;;;5094913;28;20444;-67
2021/04/04 02:16:32;;;;;;;;;;;6.20;99.90;;;;;;5099213;27;19920;-68
2021/04/04 02:19:02;;;;;;;;;;;6.30;99.90;;;;;;5120763;27;19969;-67
2021/04/04 02:21:35;;;;;;;;;;;6.30;99.90;;;;;;5134102;27;19920;-67
2021/04/04 02:24:15;;;;;;;;;;;6.30;99.90;;;;;;5127194;27;20010;-67
2021/04/04 02:26:53;;;;;;;;;;;6.30;99.90;;;;;;5108650;27;19926;-67
2021/04/04 02:32:59;;;;;;;;;;;6.40;99.90;;;;;;5113558;27;19915;-67
2021/04/04 02:35:59;;;;;;;;;;;6.30;99.90;;;;;;5135432;27;19919;-67
2021/04/04 02:38:49;;;;;;;;;;;6.30;99.90;;;;;;5110653;28;19954;-67
2021/04/04 02:41:43;;;;;;;;;;;6.30;99.90;;;;;;5075577;28;20375;-67
2021/04/04 02:51:03;;;;;;;;;;;6.40;99.90;;;;;;5097280;28;19919;-67
2021/04/04 02:53:41;;;;;;;;;;;6.40;99.90;;;;;;5137904;27;20312;-66
2021/04/04 02:56:29;;;;;;;;;;;6.40;99.90;;;;;;5118504;27;19919;-67
2021/04/04 02:59:08;;;;;;;;;;;6.30;99.90;;;;;;5101306;28;19927;-67
2021/04/04 03:01:40;;;;;;;;;;;6.40;99.90;;;;;;5136565;27;19919;-67
2021/04/04 03:04:11;;;;;;;;;;;6.30;99.90;;;;;;5090366;27;19930;-67
2021/04/04 03:13:23;;;;;;;;;;;6.30;99.90;;;;;;5121641;27;19992;-66
2021/04/04 03:16:01;;;;;;;;;;;6.30;99.90;;;;;;5125517;27;19920;-66
2021/04/04 03:36:22;;;;;;;;;;;6.30;99.90;;;;;;5137057;27;19918;-67
2021/04/04 03:39:21;;;;;;;;;;;6.30;99.90;;;;;;5101425;27;19920;-67
2021/04/04 03:41:53;;;;;;;;;;;6.30;99.90;;;;;;5116073;27;20256;-67
2021/04/04 03:51:09;;;;;;;;;;;6.40;99.90;;;;;;5115794;27;19920;-66
2021/04/04 03:53:48;;;;;;;;;;;6.40;99.90;;;;;;5132597;27;20006;-66
2021/04/04 03:56:35;;;;;;;;;;;6.40;99.90;;;;;;5116873;27;19983;-66
2021/04/04 04:06:04;;;;;;;;;;;6.30;99.90;;;;;;5115926;28;19915;-67
2021/04/04 04:09:06;;;;;;;;;;;6.40;99.90;;;;;;5116108;28;19919;-67
2021/04/04 04:11:41;;;;;;;;;;;6.30;99.90;;;;;;5116190;28;19920;-67
2021/04/04 04:14:15;;;;;;;;;;;6.30;99.90;;;;;;5099858;28;19919;-67
2021/04/04 04:23:38;;;;;;;;;;;6.40;99.90;;;;;;5124473;27;19988;-67
2021/04/04 04:26:12;;;;;;;;;;;6.40;99.90;;;;;;5095418;28;20422;-67
2021/04/04 04:28:54;;;;;;;;;;;6.40;99.90;;;;;;5110612;28;19924;-67
2021/04/04 04:41:23;;;;;;;;;;;6.30;99.90;;;;;;5131782;27;19962;-67
2021/04/04 04:44:25;;;;;;;;;;;6.30;99.90;;;;;;5131121;27;19931;-66
2021/04/04 04:46:51;;;;;;;;;;;6.30;99.90;;;;;;5100219;27;19920;-66
2021/04/04 04:49:32;;;;;;;;;;;6.30;99.90;;;;;;5135640;27;20306;-66
2021/04/04 04:51:59;;;;;;;;;;;6.30;99.90;;;;;;5083458;28;19915;-66
2021/04/04 04:54:32;;;;;;;;;;;6.30;99.90;;;;;;5097484;28;19920;-66
2021/04/04 05:03:39;;;;;;;;;;;6.40;99.90;;;;;;5106776;28;20363;-67
2021/04/04 05:06:10;;;;;;;;;;;6.30;99.90;;;;;;5096784;28;20002;-68
2021/04/04 05:08:42;;;;;;;;;;;6.30;99.90;;;;;;5107797;27;20022;-67
2021/04/04 05:11:17;;;;;;;;;;;6.40;99.90;;;;;;5117312;27;19963;-67
2021/04/04 05:14:12;;;;;;;;;;;6.40;99.90;;;;;;5094666;28;19924;-68
2021/04/04 05:23:39;;;;;;;;;;;6.30;99.90;;;;;;5129809;27;19914;-67
2021/04/04 05:26:11;;;;;;;;;;;6.20;99.90;;;;;;5076777;28;19920;-67
2021/04/04 05:28:43;;;;;;;;;;;6.20;99.90;;;;;;5119037;27;19927;-67
2021/04/04 05:31:11;;;;;;;;;;;6.20;99.90;;;;;;5096727;28;19924;-67
2021/04/04 05:33:42;;;;;;;;;;;6.20;99.90;;;;;;5096185;28;19919;-67
2021/04/04 05:36:10;;;;;;;;;;;6.20;99.90;;;;;;5123928;27;19926;-67
2021/04/04 05:38:42;;;;;;;;;;;6.20;99.90;;;;;;5118993;28;19919;-68
2021/04/04 05:41:17;;;;;;;;;;;6.30;99.90;;;;;;5125088;27;20400;-68
2021/04/04 05:43:47;;;;;;;;;;;6.20;99.90;;;;;;5123522;27;19968;-68
2021/04/04 05:46:23;;;;;;;;;;;6.30;99.90;;;;;;5132518;27;19951;-67
2021/04/04 05:56:22;;;;;;;;;;;6.40;99.90;;;;;;5114418;28;20267;-67
2021/04/04 06:02:19;;;;;;;;;;;6.30;99.90;;;;;;5128305;28;19919;-67
2021/04/04 06:15:17;;;;;;;;;;;6.30;99.90;;;;;;5121127;28;19914;-67
2021/04/04 06:27:49;;;;;;;;;;;6.40;99.90;;;;;;5105806;28;19915;-67
2021/04/04 06:33:47;;;;;;;;;;;6.50;99.90;;;;;;5129780;28;19919;-67
2021/04/04 06:46:19;;;;;;;;;;;6.60;99.90;;;;;;5119664;28;20411;-67
2021/04/04 06:49:05;;;;;;;;;;;6.50;99.90;;;;;;5124110;28;19920;-67
2021/04/04 06:51:32;;;;;;;;;;;6.50;99.90;;;;;;5118677;28;20378;-67
2021/04/04 06:54:28;;;;;;;;;;;6.50;99.90;;;;;;5134853;28;19942;-67
2021/04/04 07:00:42;;;;;;;;;;;6.60;99.90;;;;;;5132998;27;19968;-67
2021/04/04 07:03:44;;;;;;;;;;;6.60;99.90;;;;;;5133245;27;20370;-67
2021/04/04 07:16:52;;;;;;;;;;;6.60;99.90;;;;;;5133517;27;19976;-67
2021/04/04 07:19:37;;;;;;;;;;;6.60;99.90;;;;;;5106448;27;20401;-67
2021/04/04 07:48:54;;;;;;;;;;;6.80;99.90;;;;;;5132374;27;19920;-66
2021/04/04 07:58:33;;;;;;;;;;;6.90;99.90;;;;;;5121669;27;19914;-66
2021/04/04 08:01:18;;;;;;;;;;;6.90;99.90;;;;;;5077720;28;20303;-66
2021/04/04 08:04:13;;;;;;;;;;;6.90;99.90;;;;;;5109431;27;19923;-66
2021/04/04 08:07:00;;;;;;;;;;;7.00;99.90;;;;;;5115504;27;19950;-66
2021/04/04 08:09:37;;;;;;;;;;;7.00;99.90;;;;;;5116654;27;20006;-66
2021/04/04 08:15:42;;;;;;;;;;;7.10;99.90;;;;;;5110936;27;19953;-67
2021/04/04 08:21:21;;;;;;;;;;;7.10;99.90;;;;;;5121999;27;19919;-67
2021/04/04 08:24:05;;;;;;;;;;;7.20;99.90;;;;;;5096478;28;19931;-67
2021/04/04 08:26:38;;;;;;;;;;;7.20;99.90;;;;;;5117555;27;19926;-68
2021/04/04 08:29:29;;;;;;;;;;;7.20;99.90;;;;;;5131072;27;19919;-67
2021/04/04 08:38:45;;;;;;;;;;;7.30;99.90;;;;;;5094997;28;20306;-67
2021/04/04 08:41:16;;;;;;;;;;;7.30;99.90;;;;;;5115867;27;20033;-65
2021/04/04 08:43:58;;;;;;;;;;;7.30;99.90;;;;;;5120585;27;19925;-66
2021/04/04 08:49:51;;;;;;;;;;;7.40;99.90;;;;;;5078924;28;19932;-67
2021/04/04 08:52:48;;;;;;;;;;;7.40;99.90;;;;;;5074233;28;19924;-68
2021/04/04 08:55:50;;;;;;;;;;;7.50;99.90;;;;;;5094618;28;19920;-67
2021/04/04 09:04:47;;;;;;;;;;;7.60;99.90;;;;;;5090460;28;19973;-67
2021/04/04 09:07:19;;;;;;;;;;;7.50;99.90;;;;;;5093395;28;19920;-67
2021/04/04 09:10:13;;;;;;;;;;;7.50;99.90;;;;;;5090060;28;19920;-65
2021/04/04 09:12:40;;;;;;;;;;;7.50;99.90;;;;;;5079474;28;19924;-68
2021/04/04 09:15:11;;;;;;;;;;;7.40;99.90;;;;;;5083831;28;19924;-68
2021/04/04 09:17:37;;;;;;;;;;;7.50;99.90;;;;;;5067713;28;19971;-69
2021/04/04 09:20:07;;;;;;;;;;;7.40;99.90;;;;;;5074272;28;19927;-67
2021/04/04 09:22:55;;;;;;;;;;;7.40;99.90;;;;;;5078306;28;19920;-65
2021/04/04 09:25:28;;;;;;;;;;;7.40;99.90;;;;;;5094168;28;19920;-66
2021/04/04 09:28:04;;;;;;;;;;;7.40;99.90;;;;;;5074284;28;19927;-63
2021/04/04 09:37:05;;;;;;;;;;;7.60;99.90;;;;;;5078665;28;19930;-69
2021/04/04 09:39:38;;;;;;;;;;;7.70;99.90;;;;;;5081586;28;19920;-74
2021/04/04 09:48:55;;;;;;;;;;;7.90;99.90;;;;;;5112967;27;19923;-73
2021/04/04 09:54:56;;;;;;;;;;;7.90;99.90;;;;;;5122826;27;19918;-64
2021/04/04 09:57:54;;;;;;;;;;;7.90;99.90;;;;;;5129695;28;19915;-63
2021/04/04 10:04:03;;;;;;;;;;;7.90;99.90;;;;;;5122945;28;19923;-65
2021/04/04 10:10:15;;;;;;;;;;;8.00;99.90;;;;;;5125055;28;19915;-67
2021/04/04 10:12:56;;;;;;;;;;;7.90;99.90;;;;;;5122234;28;19916;-72
2021/04/04 10:15:23;;;;;;;;;;;7.90;99.90;;;;;;5093201;28;19927;-66
2021/04/04 10:18:20;;;;;;;;;;;7.90;99.90;;;;;;5119730;28;20011;-66
2021/04/04 10:30:56;;;;;;;;;;;7.80;99.90;;;;;;5134278;28;19972;-65
2021/04/04 10:33:23;;;;;;;;;;;7.80;99.90;;;;;;5123391;27;19920;-66
2021/04/04 10:35:56;;;;;;;;;;;7.80;99.90;;;;;;5136918;27;19972;-64
2021/04/04 10:38:33;;;;;;;;;;;7.70;99.90;;;;;;5096908;28;19926;-64
2021/04/04 10:41:37;;;;;;;;;;;7.80;99.90;;;;;;5126044;27;19974;-63
2021/04/04 10:44:19;;;;;;;;;;;7.80;99.90;;;;;;5015704;28;19957;-66
2021/04/04 10:46:45;;;;;;;;;;;7.80;99.90;;;;;;5098055;27;19919;-65
2021/04/04 10:49:10;;;;;;;;;;;7.80;99.90;;;;;;5124444;27;20219;-65
2021/04/04 10:55:05;;;;;;;;;;;7.80;99.90;;;;;;5131573;27;19915;-66
2021/04/04 11:00:58;;;;;;;;;;;7.90;99.90;;;;;;5096927;28;20010;-66
2021/04/04 11:03:30;;;;;;;;;;;7.90;99.90;;;;;;5118772;27;20010;-66
2021/04/04 11:06:00;;;;;;;;;;;7.90;99.90;;;;;;5097659;27;19920;-67
2021/04/04 11:08:30;;;;;;;;;;;8.00;99.90;;;;;;5109566;27;20352;-64
2021/04/04 11:10:59;;;;;;;;;;;8.10;99.90;;;;;;5117637;27;19954;-66
2021/04/04 11:13:46;;;;;;;;;;;8.20;99.90;;;;;;5121327;27;19928;-72
2021/04/04 11:16:56;;;;;;;;;;;;;;;;;;;;;
2021/04/04 11:23:23;;;;;;;;;;;8.40;99.90;;;;;;5125220;27;19914;-68
2021/04/04 11:36:11;;;;;;;;;;;8.70;99.90;;;;;;5110938;27;19929;-68
2021/04/04 11:38:59;;;;;;;;;;;8.70;99.90;;;;;;5127547;27;20036;-69
2021/04/04 11:45:05;;;;;;;;;;;8.70;99.90;;;;;;5102322;27;19968;-67
2021/04/04 11:51:23;;;;;;;;;;;8.80;99.90;;;;;;5134103;27;20023;-67
2021/04/04 11:54:20;;;;;;;;;;;8.60;99.90;;;;;;5109589;27;19923;-64
2021/04/04 11:56:47;;;;;;;;;;;8.80;99.90;;;;;;5120365;27;20006;-67
2021/04/04 11:59:20;;;;;;;;;;;8.70;99.90;;;;;;5120862;27;19916;-66
2021/04/04 12:01:45;;;;;;;;;;;8.80;99.90;;;;;;5125365;27;19926;-66
2021/04/04 12:17:44;;;;;;;;;;;8.70;99.90;;;;;;5121965;27;20292;-66
2021/04/04 12:24:02;;;;;;;;;;;8.60;99.90;;;;;;5134003;27;19915;-66
2021/04/04 12:26:29;;;;;;;;;;;8.60;99.90;;;;;;5120400;27;19926;-66
2021/04/04 12:32:24;;;;;;;;;;;8.60;99.90;;;;;;5115435;28;19915;-66
2021/04/04 12:38:29;;;;;;;;;;;8.70;99.90;;;;;;5131447;27;20373;-66
2021/04/04 12:41:07;;;;;;;;;;;8.70;99.90;;;;;;5122043;27;19927;-66
2021/04/04 12:43:38;;;;;;;;;;;8.70;99.90;;;;;;5116504;27;19968;-66
2021/04/04 12:46:09;;;;;;;;;;;8.70;99.90;;;;;;5120041;27;19942;-65
2021/04/04 12:51:44;;;;;;;;;;;8.90;99.90;;;;;;5061216;28;19920;-65
2021/04/04 12:54:31;;;;;;;;;;;8.80;99.90;;;;;;5079327;28;19920;-65
2021/04/04 12:57:17;;;;;;;;;;;8.70;99.90;;;;;;5072997;28;20287;-66
2021/04/04 13:03:27;;;;;;;;;;;8.70;99.90;;;;;;5082256;28;20057;-65
2021/04/04 13:06:01;;;;;;;;;;;8.70;99.90;;;;;;5081103;28;19927;-66
2021/04/04 13:08:33;;;;;;;;;;;8.70;99.90;;;;;;5079543;28;20085;-65
2021/04/04 13:11:03;;;;;;;;;;;8.70;99.90;;;;;;5093307;28;19923;-65
2021/04/04 13:13:43;;;;;;;;;;;8.70;99.90;;;;;;5074191;28;19920;-66
2021/04/04 13:16:17;;;;;;;;;;;8.70;99.90;;;;;;5071077;28;19924;-66
2021/04/04 13:19:10;;;;;;;;;;;8.80;99.90;;;;;;5056649;28;19986;-66
2021/04/04 13:28:35;;;;;;;;;;;8.80;99.90;;;;;;5077452;28;20015;-66
2021/04/04 13:31:23;;;;;;;;;;;8.80;99.90;;;;;;5054460;28;20011;-66
2021/04/04 13:34:14;;;;;;;;;;;8.90;99.90;;;;;;5087875;28;20015;-66
2021/04/04 13:40:10;;;;;;;;;;;8.90;99.90;;;;;;5086566;28;20008;-64
2021/04/04 13:45:58;;;;;;;;;;;9.00;99.90;;;;;;5082412;28;19914;-64
2021/04/04 13:48:33;;;;;;;;;;;9.00;99.90;;;;;;5073826;28;19920;-65
2021/04/04 13:51:02;;;;;;;;;;;9.00;99.90;;;;;;5119459;27;19930;-65
2021/04/04 13:53:43;;;;;;;;;;;9.00;99.90;;;;;;5130416;27;19973;-65
2021/04/04 14:00:01;;;;;;;;;;;9.00;99.90;;;;;;5133215;28;20044;-66
2021/04/04 14:06:09;;;;;;;;;;;9.10;99.90;;;;;;5129431;28;19918;-66
2021/04/04 14:09:02;;;;;;;;;;;9.10;99.90;;;;;;5137005;27;19919;-66
2021/04/04 14:11:36;;;;;;;;;;;9.10;99.90;;;;;;5135211;27;19919;-67
2021/04/04 14:17:33;;;;;;;;;;;9.10;99.90;;;;;;5124489;27;20433;-67
2021/04/04 14:23:51;;;;;;;;;;;9.00;99.90;;;;;;5136624;27;19931;-65
2021/04/04 14:26:21;;;;;;;;;;;9.00;99.90;;;;;;5137558;27;19927;-65
2021/04/04 14:28:50;;;;;;;;;;;9.10;99.90;;;;;;5126424;27;20388;-65
2021/04/04 14:31:22;;;;;;;;;;;9.10;99.90;;;;;;5135298;27;19955;-66
2021/04/04 14:34:07;;;;;;;;;;;9.00;99.90;;;;;;5130458;27;20374;-65
2021/04/04 14:36:40;;;;;;;;;;;9.10;99.90;;;;;;5118195;27;20494;-65
2021/04/04 14:49:12;;;;;;;;;;;9.00;99.90;;;;;;5098646;28;20421;-66
2021/04/04 14:52:03;;;;;;;;;;;9.00;99.90;;;;;;5092302;28;19997;-65
2021/04/04 14:54:29;;;;;;;;;;;9.00;99.90;;;;;;5082253;28;19920;-65
2021/04/04 14:57:01;;;;;;;;;;;9.00;99.90;;;;;;5083033;28;20282;-67
2021/04/04 14:59:54;;;;;;;;;;;9.00;99.90;;;;;;5090590;28;19924;-66
2021/04/04 15:02:46;;;;;;;;;;;9.00;99.90;;;;;;5071956;28;20014;-66
2021/04/04 15:05:17;;;;;;;;;;;9.10;99.90;;;;;;5068222;28;19927;-66
2021/04/04 15:07:58;;;;;;;;;;;9.10;99.90;;;;;;5097631;28;20010;-65
2021/04/04 15:16:54;;;;;;;;;;;9.20;99.90;;;;;;5091708;28;19927;-65
2021/04/04 15:19:22;;;;;;;;;;;9.20;99.90;;;;;;5095496;28;19969;-65
2021/04/04 15:21:56;;;;;;;;;;;9.20;99.90;;;;;;5055501;28;19921;-65
2021/04/04 15:24:28;;;;;;;;;;;9.20;99.90;;;;;;5090102;28;20290;-65
2021/04/04 15:26:55;;;;;;;;;;;9.20;99.90;;;;;;5095679;28;19920;-65
2021/04/04 15:29:27;;;;;;;;;;;9.10;99.90;;;;;;5070509;28;19955;-65
2021/04/04 15:31:55;;;;;;;;;;;9.10;99.90;;;;;;5075190;28;19956;-65
2021/04/04 15:34:28;;;;;;;;;;;9.10;99.90;;;;;;5076861;28;19927;-65
2021/04/04 15:36:54;;;;;;;;;;;9.10;99.90;;;;;;5091707;28;20389;-64
2021/04/04 15:39:26;;;;;;;;;;;9.00;99.90;;;;;;5091810;28;19919;-65
2021/04/04 15:41:54;;;;;;;;;;;9.00;99.90;;;;;;5076774;28;20389;-65
2021/04/04 15:44:25;;;;;;;;;;;9.00;99.90;;;;;;5071043;28;20019;-65
2021/04/04 15:46:57;;;;;;;;;;;9.00;99.90;;;;;;5092197;28;19930;-65
2021/04/04 15:49:26;;;;;;;;;;;9.00;99.90;;;;;;5078759;28;19920;-65
2021/04/04 15:52:17;;;;;;;;;;;9.10;99.90;;;;;;5095089;28;20358;-64
2021/04/04 15:54:46;;;;;;;;;;;9.10;99.90;;;;;;5096284;28;19962;-65
2021/04/04 15:57:17;;;;;;;;;;;9.10;99.90;;;;;;5095924;28;19920;-66
2021/04/04 16:03:15;;;;;;;;;;;9.00;99.90;;;;;;5086300;28;19975;-65
2021/04/04 16:05:47;;;;;;;;;;;9.00;99.90;;;;;;5094703;28;19920;-65
2021/04/04 16:11:59;;;;;;;;;;;9.00;99.90;;;;;;5087921;28;19915;-66
2021/04/04 16:14:26;;;;;;;;;;;8.90;99.90;;;;;;5095694;28;19920;-66
2021/04/04 16:17:01;;;;;;;;;;;8.90;99.90;;;;;;5093892;28;19920;-65
2021/04/04 16:19:33;;;;;;;;;;;8.90;99.90;;;;;;5093155;28;19931;-65
2021/04/04 16:31:29;;;;;;;;;;;8.90;99.90;;;;;;5089571;28;19922;-65
2021/04/04 16:34:25;;;;;;;;;;;8.90;99.90;;;;;;5095287;28;20371;-64
2021/04/04 16:36:55;;;;;;;;;;;8.90;99.90;;;;;;5094097;28;20019;-66
2021/04/04 16:42:37;;;;;;;;;;;8.90;99.90;;;;;;5078307;28;20317;-65
2021/04/04 16:45:13;;;;;;;;;;;8.90;99.90;;;;;;5079278;28;20317;-65
2021/04/04 16:47:46;;;;;;;;;;;8.80;99.90;;;;;;5094845;28;20015;-68
2021/04/04 16:50:14;;;;;;;;;;;8.90;99.90;;;;;;5096181;28;19927;-66
2021/04/04 16:53:23;;;;;;;;;;;;;;;;;;;;;
2021/04/04 16:55:57;;;;;;;;;;;8.80;99.90;;;;;;5109542;27;19924;-68
2021/04/04 17:02:05;;;;;;;;;;;8.80;99.90;;;;;;5113833;28;19919;-69
2021/04/04 17:04:33;;;;;;;;;;;8.70;99.90;;;;;;5113286;28;20367;-66
2021/04/04 17:07:07;;;;;;;;;;;8.70;99.90;;;;;;5074915;28;19921;-68
2021/04/04 17:09:36;;;;;;;;;;;8.70;99.90;;;;;;5114573;28;19919;-67
2021/04/04 17:12:03;;;;;;;;;;;8.60;99.90;;;;;;5094563;28;19924;-67
2021/04/04 17:14:47;;;;;;;;;;;8.50;99.90;;;;;;5098758;28;19963;-66
2021/04/04 17:17:32;;;;;;;;;;;8.50;99.90;;;;;;5095037;28;19920;-66
2021/04/04 17:20:04;;;;;;;;;;;8.50;99.90;;;;;;5073163;28;20011;-65
2021/04/04 17:25:33;;;;;;;;;;;8.50;99.90;;;;;;5079868;28;19924;-66
2021/04/04 17:35:01;;;;;;;;;;;8.30;99.90;;;;;;5093537;28;20282;-65
2021/04/04 17:37:36;;;;;;;;;;;8.20;99.90;;;;;;5089318;28;20010;-65
2021/04/04 17:40:08;;;;;;;;;;;8.10;99.90;;;;;;5094072;28;20014;-66
2021/04/04 17:42:43;;;;;;;;;;;8.10;99.90;;;;;;5103309;28;19920;-66
2021/04/04 17:45:11;;;;;;;;;;;8.00;99.90;;;;;;5093923;28;19927;-66
2021/04/04 17:47:36;;;;;;;;;;;7.90;99.90;;;;;;5096142;28;20389;-66
2021/04/04 17:50:10;;;;;;;;;;;7.80;99.90;;;;;;5112714;28;20006;-66
2021/04/04 17:53:10;;;;;;;;;;;7.80;99.90;;;;;;5095837;28;20007;-64
2021/04/04 17:56:00;;;;;;;;;;;7.80;99.90;;;;;;5132316;27;19919;-65
2021/04/04 17:58:51;;;;;;;;;;;7.70;99.90;;;;;;5104730;28;20325;-64
2021/04/04 18:15:25;;;;;;;;;;;7.40;99.90;;;;;;5119802;28;19914;-65
2021/04/04 18:27:52;;;;;;;;;;;7.30;99.90;;;;;;5124864;28;19923;-65
2021/04/04 18:30:24;;;;;;;;;;;7.40;99.90;;;;;;5121445;28;20010;-65
2021/04/04 18:32:53;;;;;;;;;;;7.40;99.90;;;;;;5094235;28;19931;-64
2021/04/04 18:35:50;;;;;;;;;;;7.40;99.90;;;;;;5109061;28;19926;-65
2021/04/04 18:38:34;;;;;;;;;;;7.40;99.90;;;;;;5117178;28;19919;-65
2021/04/04 18:41:11;;;;;;;;;;;7.30;99.90;;;;;;5085326;28;19935;-65
2021/04/04 18:50:46;;;;;;;;;;;7.30;99.90;;;;;;5120842;28;19914;-65
2021/04/04 19:00:36;;;;;;;;;;;7.30;99.90;;;;;;5110292;28;19914;-65
2021/04/04 19:03:41;;;;;;;;;;;7.20;99.90;;;;;;5082124;28;19924;-65
2021/04/04 19:06:10;;;;;;;;;;;7.20;99.90;;;;;;5076865;28;20309;-65
2021/04/04 19:08:44;;;;;;;;;;;7.10;99.90;;;;;;5117640;27;19926;-65
2021/04/04 19:18:18;;;;;;;;;;;7.10;99.90;;;;;;5118455;27;19914;-66
2021/04/04 19:24:14;;;;;;;;;;;7.00;99.90;;;;;;5099522;27;19972;-65
2021/04/04 19:26:47;;;;;;;;;;;6.90;99.90;;;;;;5100774;27;19931;-65
2021/04/04 19:29:16;;;;;;;;;;;6.90;99.90;;;;;;5133786;27;19920;-65
2021/04/04 19:31:57;;;;;;;;;;;6.80;99.90;;;;;;5131613;27;20059;-66
2021/04/04 19:34:29;;;;;;;;;;;6.80;99.90;;;;;;5119152;27;19926;-64
2021/04/04 19:37:34;;;;;;;;;;;6.80;99.90;;;;;;5084097;28;19916;-65
2021/04/04 19:40:05;;;;;;;;;;;6.70;99.90;;;;;;5108417;27;19919;-65
2021/04/04 19:46:19;;;;;;;;;;;6.60;99.90;;;;;;5128058;27;20381;-66
2021/04/04 19:48:55;;;;;;;;;;;6.60;99.90;;;;;;5122120;27;19984;-66
2021/04/04 19:51:20;;;;;;;;;;;6.60;99.90;;;;;;5113577;27;19951;-65
2021/04/04 19:53:50;;;;;;;;;;;6.60;99.90;;;;;;5098241;28;20363;-65
2021/04/04 19:56:20;;;;;;;;;;;6.60;99.90;;;;;;5128459;27;19926;-68
2021/04/04 19:58:54;;;;;;;;;;;6.60;99.90;;;;;;5127955;27;19927;-65
2021/04/04 20:01:37;;;;;;;;;;;6.50;99.90;;;;;;5084030;28;19931;-66
2021/04/04 20:04:07;;;;;;;;;;;6.50;99.90;;;;;;5098775;27;19920;-65
2021/04/04 20:06:40;;;;;;;;;;;6.50;99.90;;;;;;5116537;27;19972;-66
2021/04/04 20:09:13;;;;;;;;;;;6.50;99.90;;;;;;5118424;27;19968;-67
2021/04/04 20:11:45;;;;;;;;;;;6.50;99.90;;;;;;5136496;27;20293;-65
2021/04/04 20:14:13;;;;;;;;;;;6.50;99.90;;;;;;5098122;28;20488;-65
2021/04/04 20:17:04;;;;;;;;;;;6.40;99.90;;;;;;5090593;27;19943;-67
2021/04/04 20:26:31;;;;;;;;;;;6.40;99.90;;;;;;5120437;27;19941;-66
2021/04/04 20:28:58;;;;;;;;;;;6.30;99.90;;;;;;5096096;28;19999;-66
2021/04/04 20:31:27;;;;;;;;;;;6.30;99.90;;;;;;5115869;27;20015;-65
2021/04/04 20:34:00;;;;;;;;;;;6.30;99.90;;;;;;5099231;28;19972;-65
2021/04/04 20:46:30;;;;;;;;;;;6.20;99.90;;;;;;5115214;27;19997;-65
2021/04/04 20:49:02;;;;;;;;;;;6.30;99.90;;;;;;5096491;28;19926;-65
2021/04/04 20:51:28;;;;;;;;;;;6.20;99.90;;;;;;5113818;27;20290;-66
2021/04/04 20:53:59;;;;;;;;;;;6.20;99.90;;;;;;5136192;27;19998;-65
2021/04/04 20:56:33;;;;;;;;;;;6.20;99.90;;;;;;5123760;27;19920;-65
2021/04/04 20:59:33;;;;;;;;;;;6.20;99.90;;;;;;5096598;27;20366;-65
2021/04/04 21:18:52;;;;;;;;;;;6.10;99.90;;;;;;5119445;28;19956;-65
2021/04/04 21:21:33;;;;;;;;;;;6.20;99.90;;;;;;5096471;28;19919;-65
2021/04/04 21:24:16;;;;;;;;;;;6.10;99.90;;;;;;5094462;28;20027;-65
2021/04/04 21:30:00;;;;;;;;;;;6.20;99.90;;;;;;5132852;27;19935;-64
2021/04/04 21:35:49;;;;;;;;;;;6.20;99.90;;;;;;5106584;27;19914;-65
2021/04/04 21:42:10;;;;;;;;;;;6.10;99.90;;;;;;5118641;27;19927;-65
2021/04/04 21:45:04;;;;;;;;;;;6.10;99.90;;;;;;5131526;27;19923;-65
2021/04/04 21:51:36;;;;;;;;;;;6.20;99.90;;;;;;5129688;27;20415;-65
2021/04/04 22:25:08;;;;;;;;;;;6.30;99.90;;;;;;5090126;28;19927;-65
2021/04/04 22:27:36;;;;;;;;;;;6.30;99.90;;;;;;5085303;28;20379;-64
2021/04/04 22:36:49;;;;;;;;;;;6.30;99.90;;;;;;5086590;28;19919;-65
2021/04/04 22:39:22;;;;;;;;;;;6.30;99.90;;;;;;5057638;28;20300;-65
2021/04/04 22:41:50;;;;;;;;;;;6.30;99.90;;;;;;5092976;28;20367;-64
2021/04/04 22:44:17;;;;;;;;;;;6.30;99.90;;;;;;5080264;28;20368;-65
2021/04/04 22:56:56;;;;;;;;;;;6.30;99.90;;;;;;5136399;27;19964;-65
2021/04/04 22:59:31;;;;;;;;;;;6.30;99.90;;;;;;5119526;27;19919;-65
2021/04/04 23:05:00;;;;;;;;;;;6.20;99.90;;;;;;5130573;27;19919;-65
2021/04/04 23:07:32;;;;;;;;;;;6.20;99.90;;;;;;5106139;27;19926;-65
2021/04/04 23:09:58;;;;;;;;;;;6.20;99.90;;;;;;5134301;27;20018;-65
2021/04/04 23:12:35;;;;;;;;;;;6.10;99.90;;;;;;5137623;27;20415;-65
2021/04/04 23:15:03;;;;;;;;;;;6.20;99.90;;;;;;5108616;27;19926;-65
2021/04/04 23:24:14;;;;;;;;;;;6.20;99.90;;;;;;5131271;27;19934;-65
2021/04/04 23:26:53;;;;;;;;;;;6.20;99.90;;;;;;5119577;27;20374;-65
2021/04/04 23:29:24;;;;;;;;;;;6.30;99.90;;;;;;5117236;28;19919;-64
2021/04/04 23:31:55;;;;;;;;;;;6.30;99.90;;;;;;5097087;28;19916;-64
2021/04/04 23:34:22;;;;;;;;;;;6.30;99.90;;;;;;5116965;28;19920;-64
2021/04/04 23:36:57;;;;;;;;;;;6.30;99.90;;;;;;5120989;27;20362;-64
2021/04/04 23:39:25;;;;;;;;;;;6.30;99.90;;;;;;5116983;27;20362;-64
2021/04/04 23:41:51;;;;;;;;;;;6.40;99.90;;;;;;5133334;27;19927;-64
2021/04/04 23:44:23;;;;;;;;;;;6.40;99.90;;;;;;5133155;27;20014;-65
2021/04/04 23:46:50;;;;;;;;;;;6.50;99.90;;;;;;5137278;27;19919;-65
2021/04/04 23:49:21;;;;;;;;;;;6.50;99.90;;;;;;5096281;28;20397;-65
2021/04/04 23:51:53;;;;;;;;;;;6.60;99.90;;;;;;5078866;28;20355;-65
2021/04/04 23:54:20;;;;;;;;;;;6.60;99.90;;;;;;5123743;27;19941;-65
2021/04/04 23:56:55;;;;;;;;;;;6.70;99.90;;;;;;5133386;27;20401;-65
2021/04/04 23:59:27;;;;;;;;;;;6.70;99.90;;;;;;5126824;27;19919;-65
